Time;durP1;ratioP1;P1;durP2;ratioP2;P2;SDS_P1;SDS_P2;PMS_P1;PMS_P2;Temp;Humidity;BMP_temperature;BMP_pressure;BME280_temperature;BME280_humidity;BME280_pressure;Samples;Min_cycle;Max_cycle;Signal;HPM_P1;HPM_P2
2023/08/31 00:01:00;;;;;;;17.60;15.90;;;;;;;15.17;100.00;98155.05;109590;1251;64028;-68
2023/08/31 00:03:32;;;;;;;16.40;14.90;;;;;;;15.17;100.00;98155.90;109584;1251;58976;-69
2023/08/31 00:06:01;;;;;;;16.60;15.00;;;;;;;15.17;100.00;98156.10;109575;1253;59028;-69
2023/08/31 00:08:28;;;;;;;16.70;15.00;;;;;;;15.17;100.00;98154.72;109339;1251;66054;-69
2023/08/31 00:10:59;;;;;;;16.20;14.60;;;;;;;15.16;100.00;98157.12;109599;1251;60134;-69
2023/08/31 00:13:27;;;;;;;14.70;13.30;;;;;;;15.14;100.00;98156.00;109633;1251;62853;-69
2023/08/31 00:15:56;;;;;;;14.00;12.70;;;;;;;15.14;100.00;98157.63;109565;1251;58953;-69
2023/08/31 00:18:24;;;;;;;13.50;12.20;;;;;;;15.14;100.00;98155.33;109584;1251;59071;-69
2023/08/31 00:20:51;;;;;;;13.80;12.50;;;;;;;15.15;100.00;98156.45;109666;1251;66104;-69
2023/08/31 00:23:18;;;;;;;15.10;13.60;;;;;;;15.14;100.00;98157.25;109593;1251;60111;-69
2023/08/31 00:25:47;;;;;;;14.90;13.40;;;;;;;15.14;100.00;98157.58;109413;1250;63729;-69
2023/08/31 00:28:15;;;;;;;13.90;12.50;;;;;;;15.14;100.00;98154.25;109587;1251;59025;-69
2023/08/31 00:30:44;;;;;;;14.60;13.30;;;;;;;15.12;100.00;98154.60;109576;1251;59229;-69
2023/08/31 00:33:11;;;;;;;15.50;13.90;;;;;;;15.12;100.00;98156.79;109625;1251;66050;-69
2023/08/31 00:35:43;;;;;;;14.60;13.20;;;;;;;15.12;100.00;98154.60;109639;1250;60007;-69
2023/08/31 00:38:10;;;;;;;15.20;13.80;;;;;;;15.12;100.00;98154.41;109556;1251;64054;-69
2023/08/31 00:40:42;;;;;;;15.70;14.10;;;;;;;15.12;100.00;98154.81;109537;1253;58976;-69
2023/08/31 00:43:09;;;;;;;16.50;14.90;;;;;;;15.11;100.00;98151.48;109583;1251;59111;-69
2023/08/31 00:45:36;;;;;;;15.60;14.20;;;;;;;15.11;100.00;98149.89;109569;1250;65830;-69
2023/08/31 00:48:04;;;;;;;16.00;14.40;;;;;;;15.10;100.00;98152.17;109598;1253;60155;-68
2023/08/31 00:50:31;;;;;;;15.90;14.30;;;;;;;15.09;100.00;98151.89;109265;1252;63037;-69
2023/08/31 00:52:57;;;;;;;15.70;13.90;;;;;;;15.09;100.00;98144.20;109590;1252;58939;-69
2023/08/31 00:55:24;;;;;;;15.20;13.80;;;;;;;15.08;100.00;98143.23;109441;1251;59032;-69
2023/08/31 00:57:51;;;;;;;14.90;13.60;;;;;;;15.07;100.00;98140.80;109552;1253;66034;-68
2023/08/31 01:00:17;;;;;;;14.10;12.80;;;;;;;15.06;100.00;98137.69;109519;1251;59173;-69
2023/08/31 01:03:03;;;;;;;14.50;13.20;;;;;;;15.05;100.00;98140.48;109554;1253;64125;-68
2023/08/31 01:05:39;;;;;;;15.80;14.30;;;;;;;15.04;100.00;98140.77;109623;1251;58921;-69
2023/08/31 01:08:37;;;;;;;16.20;14.70;;;;;;;15.03;100.00;98143.84;109554;1251;59006;-69
2023/08/31 01:11:24;;;;;;;15.10;13.60;;;;;;;15.03;100.00;98142.83;109618;1251;65027;-69
2023/08/31 01:14:01;;;;;;;14.40;13.10;;;;;;;15.00;100.00;98141.63;109638;1251;60591;-69
2023/08/31 01:16:29;;;;;;;15.20;13.80;;;;;;;14.99;100.00;98147.30;109615;1251;62837;-69
2023/08/31 01:18:57;;;;;;;14.70;13.20;;;;;;;14.99;100.00;98152.86;109586;1251;58893;-68
2023/08/31 01:21:44;;;;;;;15.00;13.70;;;;;;;15.00;100.00;98154.98;109614;1251;58853;-69
2023/08/31 01:24:12;;;;;;;14.20;12.80;;;;;;;15.00;100.00;98156.21;109558;1251;64800;-69
2023/08/31 01:26:40;;;;;;;14.00;12.60;;;;;;;15.00;100.00;98162.11;109586;1251;60246;-69
2023/08/31 01:29:07;;;;;;;14.50;13.10;;;;;;;14.99;100.00;98161.31;109588;1251;64047;-70
2023/08/31 01:31:41;;;;;;;15.00;13.50;;;;;;;14.99;100.00;98164.16;109556;1251;58958;-69
2023/08/31 01:34:08;;;;;;;13.80;12.40;;;;;;;14.99;100.00;98164.53;109536;1254;59032;-69
2023/08/31 01:36:37;;;;;;;14.00;12.60;;;;;;;14.99;100.00;98163.45;109597;1251;58923;-68
2023/08/31 01:39:14;;;;;;;12.70;11.50;;;;;;;14.98;100.00;98164.95;109615;1251;59083;-69
2023/08/31 01:41:46;;;;;;;13.80;12.60;;;;;;;14.98;100.00;98168.91;109293;1251;72502;-69
2023/08/31 01:44:16;;;;;;;13.30;11.80;;;;;;;14.97;100.00;98167.93;109579;1251;59027;-69
2023/08/31 01:46:46;;;;;;;13.70;12.40;;;;;;;14.96;100.00;98164.66;109566;1251;59003;-69
2023/08/31 01:49:14;;;;;;;14.80;12.70;;;;;;;14.96;100.00;98163.96;109585;1250;64838;-69
2023/08/31 01:51:40;;;;;;;14.20;12.90;;;;;;;14.95;100.00;98166.34;109446;1251;60148;-69
2023/08/31 01:54:07;;;;;;;14.90;13.40;;;;;;;14.95;100.00;98166.84;109564;1252;64093;-69
2023/08/31 01:56:33;;;;;;;21.70;19.10;;;;;;;14.96;100.00;98171.44;109569;1251;59049;-69
2023/08/31 01:59:00;;;;;;;24.60;22.20;;;;;;;14.97;100.00;98177.92;109571;1251;58956;-68
2023/08/31 02:01:26;;;;;;;19.40;17.70;;;;;;;14.98;100.00;98177.52;109612;1251;58861;-69
2023/08/31 02:03:53;;;;;;;19.60;17.60;;;;;;;14.98;100.00;98176.27;109659;1251;58933;-69
2023/08/31 02:06:19;;;;;;;19.50;17.70;;;;;;;14.97;100.00;98180.78;109557;1251;59299;-69
2023/08/31 02:08:47;;;;;;;19.20;17.40;;;;;;;14.98;100.00;98182.19;109573;1251;59198;-69
2023/08/31 02:11:14;;;;;;;19.60;17.70;;;;;;;14.98;100.00;98183.04;109482;1251;59570;-69
2023/08/31 02:13:41;;;;;;;26.20;23.60;;;;;;;14.97;100.00;98182.92;109608;1251;64834;-69
2023/08/31 02:16:08;;;;;;;27.40;24.80;;;;;;;14.97;100.00;98184.19;109539;1252;59105;-69
2023/08/31 02:18:34;;;;;;;27.20;24.50;;;;;;;14.97;100.00;98186.91;109588;1251;59370;-69
2023/08/31 02:21:01;;;;;;;26.10;23.60;;;;;;;14.96;100.00;98185.75;109402;1251;59050;-69
2023/08/31 02:23:28;;;;;;;24.20;21.80;;;;;;;14.94;100.00;98187.48;109697;1251;58967;-69
2023/08/31 02:25:54;;;;;;;22.90;20.70;;;;;;;14.93;100.00;98189.92;109579;1250;59624;-69
2023/08/31 02:28:21;;;;;;;20.30;18.30;;;;;;;14.92;100.00;98190.55;109655;1251;59079;-69
2023/08/31 02:31:02;;;;;;;18.60;16.80;;;;;;;14.91;100.00;98191.70;109605;1251;64685;-69
2023/08/31 02:33:28;;;;;;;17.70;15.90;;;;;;;14.90;100.00;98196.34;109579;1251;58960;-69
2023/08/31 02:35:55;;;;;;;17.90;16.10;;;;;;;14.89;100.00;98197.28;109644;1251;59032;-68
2023/08/31 02:38:22;;;;;;;17.80;16.00;;;;;;;14.89;100.00;98200.30;109373;1251;64815;-69
2023/08/31 02:40:49;;;;;;;18.60;16.80;;;;;;;14.89;100.00;98197.64;109585;1251;58963;-68
2023/08/31 02:43:16;;;;;;;19.00;17.20;;;;;;;14.88;100.00;98194.89;109611;1252;65499;-69
2023/08/31 02:45:43;;;;;;;18.90;16.90;;;;;;;14.87;100.00;98196.92;109520;1252;59019;-69
2023/08/31 02:48:10;;;;;;;19.20;17.30;;;;;;;14.87;100.00;98195.20;109600;1251;58984;-69
2023/08/31 02:50:37;;;;;;;19.70;17.90;;;;;;;14.87;100.00;98192.13;109582;1251;64974;-69
2023/08/31 02:53:05;;;;;;;20.20;18.30;;;;;;;14.86;100.00;98194.16;109503;1254;59787;-69
2023/08/31 02:55:34;;;;;;;20.70;18.70;;;;;;;14.86;100.00;98192.22;109630;1251;64069;-69
2023/08/31 02:58:01;;;;;;;23.00;20.60;;;;;;;14.86;100.00;98197.74;109588;1252;58953;-68
2023/08/31 03:00:28;;;;;;;23.40;21.00;;;;;;;14.85;100.00;98197.52;109621;1251;58879;-69
2023/08/31 03:02:54;;;;;;;23.70;21.30;;;;;;;14.83;100.00;98198.05;109541;1251;65726;-69
2023/08/31 03:05:21;;;;;;;22.90;20.50;;;;;;;14.82;100.00;98200.29;109631;1253;59838;-69
2023/08/31 03:07:47;;;;;;;19.00;16.30;;;;;;;14.82;100.00;98205.30;109581;1251;62535;-69
2023/08/31 03:10:14;;;;;;;15.60;14.00;;;;;;;14.83;100.00;98205.90;109547;1253;59051;-69
2023/08/31 03:12:40;;;;;;;14.90;13.00;;;;;;;14.84;100.00;98206.88;109638;1251;58984;-69
2023/08/31 03:15:08;;;;;;;13.80;12.50;;;;;;;14.85;100.00;98204.70;109640;1252;65711;-69
2023/08/31 03:17:34;;;;;;;13.60;12.20;;;;;;;14.84;100.00;98204.89;109547;1251;59091;-68
2023/08/31 03:20:01;;;;;;;12.70;11.40;;;;;;;14.85;100.00;98206.84;109416;1251;62955;-69
2023/08/31 03:22:27;;;;;;;12.10;11.00;;;;;;;14.85;100.00;98209.11;109588;1251;59003;-69
2023/08/31 03:24:54;;;;;;;13.20;12.00;;;;;;;14.86;100.00;98210.70;109394;1253;58991;-69
2023/08/31 03:27:20;;;;;;;13.00;11.70;;;;;;;14.86;100.00;98212.98;109618;1251;59576;-69
2023/08/31 03:29:47;;;;;;;12.30;11.10;;;;;;;14.85;100.00;98211.65;109660;1251;59838;-69
2023/08/31 03:32:13;;;;;;;12.90;11.60;;;;;;;14.85;100.00;98216.30;109594;1250;59053;-69
2023/08/31 03:34:40;;;;;;;13.10;11.80;;;;;;;14.85;100.00;98216.30;109513;1251;59395;-69
2023/08/31 03:37:07;;;;;;;14.90;12.60;;;;;;;14.85;100.00;98216.67;109603;1252;59021;-69
2023/08/31 03:39:34;;;;;;;12.80;11.60;;;;;;;14.84;100.00;98215.83;109627;1251;59047;-69
2023/08/31 03:42:00;;;;;;;14.10;12.20;;;;;;;14.83;100.00;98218.64;109621;1251;59059;-69
2023/08/31 03:44:27;;;;;;;12.30;11.00;;;;;;;14.82;100.00;98221.91;109582;1250;62959;-69
2023/08/31 03:46:53;;;;;;;12.30;11.10;;;;;;;14.82;100.00;98226.25;109572;1252;59022;-68
2023/08/31 03:49:20;;;;;;;12.00;10.80;;;;;;;14.82;100.00;98229.12;109599;1251;59071;-69
2023/08/31 03:51:46;;;;;;;12.00;10.90;;;;;;;14.81;100.00;98230.85;109549;1251;66055;-69
2023/08/31 03:54:13;;;;;;;11.40;10.30;;;;;;;14.82;100.00;98232.56;109640;1251;59361;-69
2023/08/31 03:56:39;;;;;;;12.00;10.70;;;;;;;14.81;100.00;98237.75;109557;1253;59043;-68
2023/08/31 03:59:06;;;;;;;11.90;10.70;;;;;;;14.81;100.00;98234.91;109530;1251;59005;-68
2023/08/31 04:01:32;;;;;;;11.70;10.20;;;;;;;14.82;100.00;98231.83;109593;1251;59027;-69
2023/08/31 04:03:59;;;;;;;11.20;10.10;;;;;;;14.83;100.00;98231.52;109638;1251;59592;-68
2023/08/31 04:06:26;;;;;;;12.10;10.90;;;;;;;14.85;100.00;98232.41;109577;1251;59016;-69
2023/08/31 04:08:53;;;;;;;12.10;10.90;;;;;;;14.86;100.00;98234.44;109304;1251;64076;-69
2023/08/31 04:11:19;;;;;;;12.50;11.30;;;;;;;14.87;100.00;98234.14;109560;1253;58982;-69
2023/08/31 04:13:46;;;;;;;11.80;10.60;;;;;;;14.88;100.00;98234.03;109604;1251;59014;-69
2023/08/31 04:16:12;;;;;;;11.90;10.60;;;;;;;14.89;100.00;98232.16;109568;1254;64888;-69
2023/08/31 04:18:39;;;;;;;11.30;10.30;;;;;;;14.91;100.00;98232.32;109573;1251;58975;-68
2023/08/31 04:21:05;;;;;;;12.40;11.20;;;;;;;14.93;100.00;98234.45;109599;1251;62821;-69
2023/08/31 04:23:32;;;;;;;13.20;11.00;;;;;;;14.96;100.00;98235.27;109581;1253;59063;-69
2023/08/31 04:25:59;;;;;;;12.30;11.10;;;;;;;14.99;100.00;98236.08;109587;1251;60139;-68
2023/08/31 04:28:25;;;;;;;13.20;11.90;;;;;;;15.02;100.00;98240.63;109598;1251;66004;-68
2023/08/31 04:30:52;;;;;;;14.40;12.20;;;;;;;15.05;100.00;98241.20;109314;1251;61447;-68
2023/08/31 04:33:18;;;;;;;14.20;12.80;;;;;;;15.09;100.00;98238.52;109554;1251;64049;-69
2023/08/31 04:35:45;;;;;;;13.30;12.10;;;;;;;15.12;100.00;98240.88;109587;1251;58939;-69
2023/08/31 04:38:11;;;;;;;12.60;10.90;;;;;;;15.16;100.00;98242.58;109626;1251;59024;-68
2023/08/31 04:40:38;;;;;;;13.70;12.20;;;;;;;15.24;100.00;98237.91;109393;1251;59599;-68
2023/08/31 04:43:04;;;;;;;14.10;11.80;;;;;;;15.32;100.00;98239.03;109583;1251;58964;-69
2023/08/31 04:45:31;;;;;;;12.50;11.30;;;;;;;15.43;100.00;98237.83;109633;1251;64044;-68
2023/08/31 04:47:58;;;;;;;12.30;11.10;;;;;;;15.50;100.00;98243.05;109559;1251;58875;-68
2023/08/31 04:50:25;;;;;;;12.10;11.00;;;;;;;15.57;100.00;98243.72;109579;1251;58931;-68
2023/08/31 04:52:52;;;;;;;12.20;11.00;;;;;;;15.65;100.00;98249.77;109494;1251;65981;-68
2023/08/31 04:55:22;;;;;;;12.90;11.60;;;;;;;15.70;100.00;98256.46;109607;1251;59823;-68
2023/08/31 04:57:48;;;;;;;12.50;11.30;;;;;;;15.74;100.00;98258.39;109565;1251;62833;-68
2023/08/31 05:00:15;;;;;;;12.80;11.40;;;;;;;15.80;100.00;98255.98;109581;1251;58967;-68
2023/08/31 05:02:43;;;;;;;11.80;10.60;;;;;;;15.89;100.00;98260.31;109614;1251;58971;-68
2023/08/31 05:05:09;;;;;;;11.40;10.30;;;;;;;15.98;100.00;98259.58;109576;1251;66102;-68
2023/08/31 05:07:36;;;;;;;11.90;10.70;;;;;;;16.07;100.00;98259.02;109542;1251;59998;-68
2023/08/31 05:10:03;;;;;;;12.00;9.80;;;;;;;16.19;100.00;98263.55;109610;1251;59019;-68
2023/08/31 05:12:30;;;;;;;13.10;9.70;;;;;;;16.32;100.00;98262.37;109378;1251;59094;-68
2023/08/31 05:14:56;;;;;;;11.00;9.90;;;;;;;16.44;100.00;98261.57;109616;1251;58963;-68
2023/08/31 05:17:23;;;;;;;11.30;10.00;;;;;;;16.53;100.00;98264.22;109607;1251;59689;-68
2023/08/31 05:19:50;;;;;;;11.50;10.40;;;;;;;16.63;100.00;98267.21;109635;1251;60223;-68
2023/08/31 05:22:17;;;;;;;11.50;10.30;;;;;;;16.80;100.00;98271.13;109559;1251;64077;-68
2023/08/31 05:24:43;;;;;;;11.70;9.30;;;;;;;17.01;100.00;98272.12;109555;1251;58945;-68
2023/08/31 05:27:10;;;;;;;12.10;9.80;;;;;;;17.24;100.00;98272.61;109547;1251;59066;-68
2023/08/31 05:29:36;;;;;;;10.10;9.00;;;;;;;17.50;100.00;98270.38;109581;1251;58896;-68
2023/08/31 05:32:03;;;;;;;9.50;8.70;;;;;;;17.77;100.00;98276.98;109380;1251;59021;-68
2023/08/31 05:34:32;;;;;;;9.90;8.60;;;;;;;18.14;100.00;98277.87;109385;1251;64053;-68
2023/08/31 05:36:59;;;;;;;9.50;8.00;;;;;;;18.79;100.00;98278.57;109550;1251;58961;-68
2023/08/31 05:39:25;;;;;;;7.90;7.20;;;;;;;19.61;100.00;98284.15;109600;1251;59109;-68
2023/08/31 05:41:52;;;;;;;7.50;6.80;;;;;;;20.21;100.00;98287.48;109613;1251;66105;-68
2023/08/31 05:44:18;;;;;;;8.10;7.30;;;;;;;20.48;100.00;98287.86;109572;1251;58972;-68
2023/08/31 05:46:44;;;;;;;7.20;6.50;;;;;;;20.54;100.00;98289.09;109616;1251;64021;-68
2023/08/31 05:49:11;;;;;;;7.70;6.10;;;;;;;20.58;100.00;98290.77;109586;1251;59000;-68
2023/08/31 05:51:37;;;;;;;6.30;5.60;;;;;;;20.50;100.00;98296.00;109541;1251;59017;-68
2023/08/31 05:54:05;;;;;;;6.60;5.70;;;;;;;20.25;100.00;98300.89;109427;1251;59339;-68
2023/08/31 05:56:31;;;;;;;5.60;5.10;;;;;;;20.11;100.00;98300.38;109421;1252;59030;-68
2023/08/31 05:58:58;;;;;;;5.40;4.90;;;;;;;19.99;100.00;98304.45;109575;1251;59019;-68
2023/08/31 06:01:24;;;;;;;5.00;4.60;;;;;;;19.84;100.00;98306.38;109580;1251;58967;-69
2023/08/31 06:03:51;;;;;;;5.20;4.70;;;;;;;19.66;100.00;98313.86;109655;1251;59029;-69
2023/08/31 06:06:17;;;;;;;6.10;4.90;;;;;;;19.55;100.00;98314.17;109546;1251;58973;-68
2023/08/31 06:08:44;;;;;;;5.80;4.50;;;;;;;19.51;100.00;98316.66;109584;1251;59005;-69
2023/08/31 06:11:10;;;;;;;4.70;4.30;;;;;;;19.49;100.00;98317.46;109568;1251;62514;-68
2023/08/31 06:13:37;;;;;;;5.40;4.90;;;;;;;19.53;100.00;98313.72;109597;1251;58954;-69
2023/08/31 06:16:04;;;;;;;4.70;4.30;;;;;;;19.57;100.00;98315.76;109572;1250;59035;-69
2023/08/31 06:18:31;;;;;;;7.30;4.70;;;;;;;19.59;100.00;98322.46;109591;1251;64526;-69
2023/08/31 06:20:57;;;;;;;5.00;4.50;;;;;;;19.60;100.00;98322.55;109617;1251;59891;-69
2023/08/31 06:23:24;;;;;;;4.60;4.10;;;;;;;19.61;100.00;98318.58;109534;1251;62823;-69
2023/08/31 06:25:51;;;;;;;4.20;3.80;;;;;;;19.64;100.00;98321.27;109560;1251;58964;-70
2023/08/31 06:28:18;;;;;;;4.60;4.20;;;;;;;19.61;100.00;98321.62;109563;1251;59047;-69
2023/08/31 06:30:46;;;;;;;4.70;4.30;;;;;;;19.60;100.00;98318.48;109540;1251;65081;-69
2023/08/31 06:33:17;;;;;;;4.90;4.10;;;;;;;19.62;100.00;98318.80;109585;1251;58951;-69
2023/08/31 06:35:51;;;;;;;4.70;4.10;;;;;;;19.60;100.00;98319.05;109548;1251;63813;-69
2023/08/31 06:38:18;;;;;;;4.30;3.70;;;;;;;19.59;100.00;98321.62;109600;1251;58988;-69
2023/08/31 06:40:46;;;;;;;4.00;3.60;;;;;;;19.60;100.00;98324.83;109350;1251;59028;-69
2023/08/31 06:43:13;;;;;;;4.10;3.80;;;;;;;19.60;100.00;98329.45;109581;1251;64492;-68
2023/08/31 06:45:40;;;;;;;3.70;3.40;;;;;;;19.63;100.00;98328.80;109541;1251;60141;-69
2023/08/31 06:48:06;;;;;;;4.10;3.80;;;;;;;19.68;100.00;98333.77;109376;1251;64052;-69
2023/08/31 06:50:35;;;;;;;5.60;4.10;;;;;;;19.73;100.00;98336.50;109569;1251;58979;-68
2023/08/31 06:53:03;;;;;;;4.60;4.00;;;;;;;19.81;100.00;98335.52;109623;1251;58935;-69
2023/08/31 06:55:31;;;;;;;3.40;3.20;;;;;;;19.91;100.00;98337.05;109542;1251;64495;-69
2023/08/31 06:57:58;;;;;;;4.70;4.10;;;;;;;19.95;100.00;98335.41;109405;1251;59813;-69
2023/08/31 07:00:25;;;;;;;2.90;2.70;;;;;;;19.94;100.00;98339.98;109548;1251;59142;-68
2023/08/31 07:02:52;;;;;;;3.30;3.00;;;;;;;19.98;100.00;98341.73;109521;1251;59053;-69
2023/08/31 07:05:25;;;;;;;2.80;2.50;;;;;;;19.91;100.00;98341.41;109551;1251;58979;-68
2023/08/31 07:07:55;;;;;;;2.60;2.40;;;;;;;19.74;100.00;98345.20;109645;1251;66027;-69
2023/08/31 07:10:22;;;;;;;3.10;2.60;;;;;;;19.57;100.00;98346.58;109585;1251;60215;-69
2023/08/31 07:12:48;;;;;;;2.20;2.00;;;;;;;19.41;100.00;98348.40;109532;1251;62810;-69
2023/08/31 07:15:16;;;;;;;2.90;2.40;;;;;;;19.30;100.00;98353.60;109542;1251;58978;-69
2023/08/31 07:17:42;;;;;;;4.00;2.40;;;;;;;19.24;100.00;98352.70;109557;1251;59010;-69
2023/08/31 07:20:10;;;;;;;2.50;2.30;;;;;;;19.29;100.00;98355.23;109570;1251;64809;-68
2023/08/31 07:22:37;;;;;;;2.20;2.00;;;;;;;19.42;100.00;98357.35;109352;1252;59016;-67
2023/08/31 07:25:05;;;;;;;2.20;2.00;;;;;;;19.53;100.00;98358.39;109523;1251;62870;-68
2023/08/31 07:27:32;;;;;;;1.90;1.70;;;;;;;19.65;100.00;98360.98;109313;1251;58975;-68
2023/08/31 07:29:58;;;;;;;3.60;2.10;;;;;;;19.81;100.00;98360.43;109558;1251;58925;-68
2023/08/31 07:32:25;;;;;;;1.90;1.70;;;;;;;19.94;100.00;98364.70;109364;1251;66060;-68
2023/08/31 07:34:51;;;;;;;1.80;1.70;;;;;;;20.06;100.00;98364.02;109593;1251;59002;-69
2023/08/31 07:37:18;;;;;;;2.00;1.50;;;;;;;20.16;100.00;98361.07;109545;1251;64096;-68
2023/08/31 07:39:45;;;;;;;1.80;1.70;;;;;;;20.23;100.00;98360.49;109565;1251;58971;-69
2023/08/31 07:42:12;;;;;;;1.70;1.50;;;;;;;20.24;100.00;98358.65;109419;1251;59092;-69
2023/08/31 07:44:38;;;;;;;2.30;1.70;;;;;;;20.23;100.00;98361.50;109569;1251;64700;-69
2023/08/31 07:47:05;;;;;;;2.20;1.60;;;;;;;20.19;100.00;98371.04;109514;1251;59209;-69
2023/08/31 07:49:32;;;;;;;1.80;1.70;;;;;;;20.13;100.00;98377.67;109389;1251;62962;-69
2023/08/31 07:51:58;;;;;;;1.80;1.70;;;;;;;20.11;100.00;98376.05;109572;1251;58930;-69
2023/08/31 07:54:25;;;;;;;1.70;1.50;;;;;;;20.20;100.00;98375.73;109529;1251;59102;-69
2023/08/31 07:56:52;;;;;;;3.30;1.40;;;;;;;20.32;100.00;98377.08;109558;1251;64937;-69
2023/08/31 07:59:19;;;;;;;1.60;1.50;;;;;;;20.48;100.00;98382.58;109609;1251;60111;-69
2023/08/31 08:01:46;;;;;;;1.60;1.30;;;;;;;20.69;100.00;98387.84;109504;1251;62895;-69
2023/08/31 08:04:13;;;;;;;2.10;1.50;;;;;;;20.85;100.00;98390.52;109437;1252;58966;-69
2023/08/31 08:06:39;;;;;;;1.70;1.20;;;;;;;21.05;100.00;98386.97;109515;1252;59023;-69
2023/08/31 08:09:06;;;;;;;1.10;1.10;;;;;;;21.14;100.00;98390.23;109474;1252;66010;-69
2023/08/31 08:11:34;;;;;;;1.50;1.30;;;;;;;21.18;100.00;98395.52;109455;1252;59061;-69
2023/08/31 08:14:01;;;;;;;2.10;1.80;;;;;;;21.31;100.00;98397.20;109474;1252;62523;-69
2023/08/31 08:16:27;;;;;;;1.50;1.40;;;;;;;21.48;100.00;98396.96;109484;1252;58971;-69
2023/08/31 08:18:54;;;;;;;1.40;1.00;;;;;;;21.70;100.00;98398.69;109577;1252;58940;-69
2023/08/31 08:21:20;;;;;;;2.60;1.20;;;;;;;21.95;100.00;98399.29;109476;1252;66013;-69
2023/08/31 08:23:50;;;;;;;1.30;1.20;;;;;;;22.12;100.00;98400.14;109500;1253;59024;-69
2023/08/31 08:26:17;;;;;;;;;;;;;;;22.29;100.00;98398.42;109497;1252;62809;-69
2023/08/31 08:28:44;;;;;;;1.20;1.10;;;;;;;22.38;100.00;98396.09;109495;1253;58946;-69
2023/08/31 08:31:10;;;;;;;2.00;1.20;;;;;;;22.46;100.00;98393.05;109535;1253;59023;-69
2023/08/31 08:33:37;;;;;;;1.80;1.30;;;;;;;22.55;100.00;98400.95;109388;1252;161479;-69
2023/08/31 08:36:04;;;;;;;2.70;1.20;;;;;;;22.56;100.00;98404.10;109480;1254;60222;-69
2023/08/31 08:38:30;;;;;;;2.00;1.30;;;;;;;22.51;100.00;98403.13;109465;1252;62569;-69
2023/08/31 08:40:57;;;;;;;1.40;1.30;;;;;;;22.42;100.00;98407.64;109548;1252;58992;-69
2023/08/31 08:43:27;;;;;;;2.00;1.10;;;;;;;22.42;100.00;98404.24;109472;1251;58851;-69
2023/08/31 08:45:55;;;;;;;1.80;1.50;;;;;;;22.41;100.00;98408.94;109481;1252;66073;-69
2023/08/31 08:48:22;;;;;;;1.30;1.20;;;;;;;22.40;100.00;98410.83;109477;1254;59008;-69
2023/08/31 08:50:49;;;;;;;1.50;1.30;;;;;;;22.43;100.00;98409.56;109513;1252;65137;-69
2023/08/31 08:53:16;;;;;;;1.70;1.60;;;;;;;22.50;100.00;98410.85;109484;1252;59049;-69
2023/08/31 08:55:42;;;;;;;1.60;1.30;;;;;;;22.58;100.00;98413.94;109528;1252;59009;-69
2023/08/31 08:58:09;;;;;;;2.20;1.50;;;;;;;22.59;100.00;98413.85;109309;1253;64996;-69
2023/08/31 09:00:37;;;;;;;1.70;1.60;;;;;;;22.55;100.00;98416.88;109510;1252;60419;-69
2023/08/31 09:03:03;;;;;;;2.70;1.40;;;;;;;22.53;100.00;98411.16;109459;1252;64129;-69
2023/08/31 09:05:33;;;;;;;1.50;1.40;;;;;;;22.59;100.00;98410.80;109302;1252;59071;-69
2023/08/31 09:08:00;;;;;;;;;;;;;;;22.63;100.00;98409.02;109502;1252;58942;-69
2023/08/31 09:10:40;;;;;;;2.00;1.50;;;;;;;22.69;100.00;98406.40;109526;1253;65848;-68
2023/08/31 09:13:08;;;;;;;2.20;1.30;;;;;;;22.72;100.00;98408.18;109510;1252;59832;-68
2023/08/31 09:15:43;;;;;;;1.90;1.40;;;;;;;22.76;100.00;98408.09;109464;1252;63742;-68
2023/08/31 09:18:22;;;;;;;1.70;1.30;;;;;;;22.93;100.00;98409.38;109486;1252;59110;-68
2023/08/31 09:20:49;;;;;;;1.90;1.40;;;;;;;23.10;100.00;98409.36;109502;1252;59164;-69
2023/08/31 09:23:16;;;;;;;1.70;1.60;;;;;;;23.16;100.00;98414.50;109488;1253;66525;-69
2023/08/31 09:25:53;;;;;;;2.60;1.60;;;;;;;23.27;100.00;98413.05;109514;1251;59101;-69
2023/08/31 09:28:22;;;;;;;1.50;1.40;;;;;;;23.35;100.00;98408.54;109483;1252;64041;-68
2023/08/31 09:30:51;;;;;;;2.40;1.30;;;;;;;23.43;100.00;98413.52;109368;1252;59087;-68
2023/08/31 09:33:20;;;;;;;3.20;1.50;;;;;;;23.55;100.00;98413.93;109445;1253;59789;-69
2023/08/31 09:35:52;;;;;;;2.40;1.70;;;;;;;23.66;100.00;98413.79;109518;1253;66043;-69
2023/08/31 09:38:19;;;;;;;2.20;1.40;;;;;;;23.67;100.00;98417.34;109550;1252;59798;-69
2023/08/31 09:40:46;;;;;;;2.70;1.70;;;;;;;23.69;100.00;98416.97;109517;1252;65255;-69
2023/08/31 09:43:23;;;;;;;2.60;1.70;;;;;;;23.73;100.00;98416.86;109168;1251;59035;-69
2023/08/31 09:45:52;;;;;;;2.30;1.70;;;;;;;23.71;100.00;98416.42;109404;1251;59036;-69
2023/08/31 09:48:19;;;;;;;2.10;1.70;;;;;;;23.67;100.00;98423.05;109515;1252;66091;-69
2023/08/31 09:50:46;;;;;;;1.80;1.70;;;;;;;23.68;100.00;98421.98;109478;1252;60095;-69
2023/08/31 09:53:16;;;;;;;2.40;2.20;;;;;;;23.84;100.00;98422.58;109493;1252;63056;-69
2023/08/31 09:55:43;;;;;;;2.80;2.00;;;;;;;23.96;100.00;98419.04;109494;1252;58960;-69
2023/08/31 09:58:11;;;;;;;4.00;2.20;;;;;;;24.00;100.00;98424.16;109392;1251;59070;-69
2023/08/31 10:00:38;;;;;;;2.80;2.20;;;;;;;24.03;100.00;98427.73;109476;1251;65276;-69
2023/08/31 10:03:05;;;;;;;2.80;2.40;;;;;;;23.95;100.00;98430.84;109540;1252;59602;-69
2023/08/31 10:05:33;;;;;;;5.80;2.80;;;;;;;23.89;100.00;98429.98;109487;1252;63760;-69
2023/08/31 10:08:00;;;;;;;3.90;2.80;;;;;;;23.90;100.00;98432.38;109300;1251;59101;-69
2023/08/31 10:10:29;;;;;;;2.70;2.50;;;;;;;23.95;100.00;98436.11;109371;1253;59020;-69
2023/08/31 10:12:58;;;;;;;3.20;2.90;;;;;;;24.00;100.00;98436.73;109505;1251;66139;-69
2023/08/31 10:15:32;;;;;;;3.30;3.00;;;;;;;24.03;100.00;98433.13;109542;1252;60149;-69
2023/08/31 10:18:00;;;;;;;3.00;2.70;;;;;;;24.13;100.00;98431.04;109483;1252;63918;-69
2023/08/31 10:20:31;;;;;;;3.00;2.80;;;;;;;24.11;100.00;98436.14;109500;1252;58992;-69
2023/08/31 10:22:58;;;;;;;2.90;2.60;;;;;;;24.00;100.00;98437.10;109532;1252;59015;-69
2023/08/31 10:25:26;;;;;;;2.70;2.50;;;;;;;23.87;100.00;98433.69;109506;1252;67550;-69
2023/08/31 10:27:54;;;;;;;3.60;2.80;;;;;;;23.76;100.00;98434.02;109373;1253;60527;-69
2023/08/31 10:30:24;;;;;;;2.90;2.50;;;;;;;23.67;100.00;98434.95;109492;1252;62856;-69
2023/08/31 10:33:08;;;;;;;2.80;2.50;;;;;;;23.55;100.00;98435.15;109484;1252;59067;-69
2023/08/31 10:35:47;;;;;;;2.80;2.50;;;;;;;23.51;100.00;98431.15;109497;1253;58981;-69
2023/08/31 10:38:27;;;;;;;4.40;3.00;;;;;;;23.56;100.00;98429.75;109533;1252;66064;-69
2023/08/31 10:41:03;;;;;;;4.80;3.40;;;;;;;23.64;100.00;98427.09;109554;1252;60228;-69
2023/08/31 10:43:51;;;;;;;3.10;2.90;;;;;;;23.64;100.00;98427.34;109509;1252;62826;-68
2023/08/31 10:46:29;;;;;;;2.80;2.60;;;;;;;23.66;100.00;98428.77;109528;1252;58958;-69
2023/08/31 10:49:14;;;;;;;3.30;3.00;;;;;;;23.69;100.00;98428.53;109505;1252;59095;-69
2023/08/31 10:51:43;;;;;;;3.30;3.00;;;;;;;23.70;100.00;98430.60;109490;1252;64898;-71
2023/08/31 10:54:14;;;;;;;3.60;3.40;;;;;;;23.73;100.00;98430.84;109550;1251;60221;-69
2023/08/31 10:57:03;;;;;;;16.70;14.70;;;;;;;23.67;100.00;98430.54;109531;1251;64258;-69
2023/08/31 10:59:44;;;;;;;5.10;4.30;;;;;;;23.50;100.00;98429.27;109491;1252;59232;-69
2023/08/31 11:02:29;;;;;;;4.70;4.30;;;;;;;23.57;100.00;98431.45;109537;1251;59096;-69
2023/08/31 11:05:00;;;;;;;3.70;3.40;;;;;;;23.70;100.00;98437.15;109474;1252;66143;-69
2023/08/31 11:07:28;;;;;;;3.40;2.90;;;;;;;23.73;100.00;98440.06;109532;1252;58996;-69
2023/08/31 11:10:07;;;;;;;3.40;3.10;;;;;;;23.82;100.00;98439.83;109424;1251;64544;-70
2023/08/31 11:12:33;;;;;;;4.60;4.20;;;;;;;24.01;100.00;98437.64;109470;1252;59337;-69
2023/08/31 11:15:00;;;;;;;4.00;3.70;;;;;;;24.20;100.00;98435.34;109405;1252;59010;-69